Time;durP1;ratioP1;P1;durP2;ratioP2;P2;SDS_P1;SDS_P2;PMS_P1;PMS_P2;Temp;Humidity;BMP_temperature;BMP_pressure;BME280_temperature;BME280_humidity;BME280_pressure;Samples;Min_cycle;Max_cycle;Signal;HPM_P1;HPM_P2
2023/06/25 00:00:05;;;;;;;1.00;0.62;;;;;;;22.44;58.57;100005.50;4460379;32;33890;-86
2023/06/25 00:02:44;;;;;;;;;;;;;;;22.35;59.02;100012.56;4464064;32;34357;-86
2023/06/25 00:05:13;;;;;;;1.20;1.10;;;;;;;22.42;58.92;100007.50;4462762;32;33153;-87
2023/06/25 00:07:40;;;;;;;1.27;1.17;;;;;;;22.37;58.82;100007.06;4458388;32;34772;-87
2023/06/25 00:10:08;;;;;;;0.55;0.55;;;;;;;22.35;58.96;100009.03;4450178;32;33755;-87
2023/06/25 00:12:36;;;;;;;1.55;0.90;;;;;;;22.39;58.71;100005.94;4447990;32;32448;-87
2023/06/25 00:15:05;;;;;;;1.10;0.80;;;;;;;22.39;58.91;100007.78;4461669;32;31958;-87
2023/06/25 00:17:33;;;;;;;0.90;0.90;;;;;;;22.36;58.93;100011.59;4458935;32;34287;-88
2023/06/25 00:20:00;;;;;;;1.12;0.95;;;;;;;22.24;59.35;100016.22;4448883;32;33187;-88
2023/06/25 00:22:28;;;;;;;1.23;1.12;;;;;;;22.53;58.18;100014.59;4463035;32;34162;-88
2023/06/25 00:24:56;;;;;;;0.37;0.37;;;;;;;22.52;58.19;100021.84;4456175;32;32960;-88
2023/06/25 00:27:24;;;;;;;1.42;0.98;;;;;;;22.34;58.74;100024.31;4459470;32;33868;-88
2023/06/25 00:29:51;;;;;;;1.70;0.80;;;;;;;22.53;58.54;100031.59;4444702;32;33509;-88
2023/06/25 00:32:19;;;;;;;1.55;1.25;;;;;;;22.18;59.60;100035.59;4463004;32;33219;-88
2023/06/25 00:34:47;;;;;;;0.80;0.80;;;;;;;21.85;60.88;100042.06;4448084;32;33704;-88
2023/06/25 00:37:17;;;;;;;0.98;0.93;;;;;;;21.94;60.76;100040.41;4452161;32;33002;-88
2023/06/25 00:39:47;;;;;;;0.80;0.80;;;;;;;21.96;60.75;100046.50;4462935;32;33182;-88
2023/06/25 00:42:17;;;;;;;0.98;0.98;;;;;;;21.96;60.68;100049.19;4460655;32;34566;-88
2023/06/25 00:44:45;;;;;;;0.90;0.90;;;;;;;21.83;61.14;100040.47;4449037;32;32511;-88
2023/06/25 00:47:15;;;;;;;0.77;0.77;;;;;;;21.87;61.09;100045.47;4449014;32;32881;-88
2023/06/25 00:49:44;;;;;;;3.58;1.52;;;;;;;21.95;60.94;100040.28;4451623;32;34008;-90
2023/06/25 00:52:14;;;;;;;0.70;0.60;;;;;;;22.17;60.31;100046.47;4450486;32;32919;-90
2023/06/25 00:54:43;;;;;;;1.52;0.98;;;;;;;22.17;60.29;100051.84;4446890;32;32347;-90
2023/06/25 00:57:11;;;;;;;0.40;0.40;;;;;;;21.88;61.42;100052.53;4450293;32;33556;-90
2023/06/25 00:59:41;;;;;;;1.12;0.57;;;;;;;21.91;61.51;100048.75;4442007;32;34471;-90
2023/06/25 01:02:47;;;;;;;3.03;1.40;;;;;;;22.02;61.29;100053.16;4451538;32;32070;-90
2023/06/25 01:05:47;;;;;;;1.00;0.65;;;;;;;22.05;61.42;100048.38;4448027;32;32815;-90
2023/06/25 01:08:30;;;;;;;0.85;0.85;;;;;;;22.06;61.49;100050.09;4434613;32;32702;-90
2023/06/25 01:10:58;;;;;;;2.75;1.20;;;;;;;22.01;61.88;100038.88;4431998;32;33245;-88
2023/06/25 01:13:26;;;;;;;0.70;0.70;;;;;;;22.08;61.86;100032.00;4458131;32;34176;-88
2023/06/25 01:15:54;;;;;;;1.60;1.40;;;;;;;22.19;61.60;100031.91;4451128;32;32360;-89
2023/06/25 01:18:23;;;;;;;1.02;0.60;;;;;;;22.19;61.59;100031.91;4458617;32;33725;-89
2023/06/25 01:20:56;;;;;;;0.28;0.28;;;;;;;22.18;61.64;100032.91;4427496;32;33350;-89
2023/06/25 01:23:24;;;;;;;0.20;0.20;;;;;;;22.22;61.68;100023.59;4440784;32;33242;-88
2023/06/25 01:25:51;;;;;;;3.12;1.30;;;;;;;22.17;61.90;100015.09;4461676;32;33468;-88
2023/06/25 01:28:20;;;;;;;1.55;1.30;;;;;;;22.24;61.75;100010.84;4459307;32;34555;-89
2023/06/25 01:30:52;;;;;;;1.12;1.02;;;;;;;22.23;61.80;100001.06;4428861;32;34379;-88
2023/06/25 01:33:22;;;;;;;4.35;1.10;;;;;;;22.25;61.67;100009.00;4466402;32;32430;-88
2023/06/25 01:35:50;;;;;;;1.70;1.60;;;;;;;22.20;61.91;100014.78;4464479;31;34329;-88
2023/06/25 01:38:17;;;;;;;0.28;0.28;;;;;;;22.23;61.66;100002.91;4449257;31;32498;-88
2023/06/25 01:40:45;;;;;;;1.05;0.60;;;;;;;22.22;61.77;100007.44;4457401;31;32729;-89
2023/06/25 01:43:13;;;;;;;1.00;0.90;;;;;;;22.25;61.78;99998.25;4456030;31;33906;-88
2023/06/25 01:45:41;;;;;;;0.57;0.55;;;;;;;22.26;61.93;100009.84;4463865;31;32657;-88
2023/06/25 01:48:09;;;;;;;1.37;1.27;;;;;;;22.29;61.74;100013.13;4453063;31;35040;-88
2023/06/25 01:50:37;;;;;;;1.00;0.93;;;;;;;22.34;61.51;100008.19;4459037;31;33471;-88
2023/06/25 01:53:04;;;;;;;1.00;1.00;;;;;;;22.26;61.88;100010.69;4451080;31;33423;-89
2023/06/25 01:55:32;;;;;;;0.57;0.57;;;;;;;22.27;62.00;100003.50;4460112;31;33076;-89
2023/06/25 01:58:00;;;;;;;1.12;1.00;;;;;;;22.28;62.03;100005.19;4476027;31;34007;-88
2023/06/25 02:00:27;;;;;;;0.37;0.37;;;;;;;22.35;61.85;100007.19;4486911;31;33571;-89
2023/06/25 02:03:00;;;;;;;0.95;0.88;;;;;;;22.32;62.09;100001.25;4466988;31;33765;-89
2023/06/25 02:05:28;;;;;;;1.05;1.00;;;;;;;22.59;61.04;100004.13;4470901;31;33700;-88
2023/06/25 02:07:56;;;;;;;0.55;0.55;;;;;;;22.55;61.14;100004.53;4465695;31;33245;-88
2023/06/25 02:10:23;;;;;;;0.47;0.47;;;;;;;22.58;61.05;100005.12;4463884;31;34419;-88
2023/06/25 02:12:51;;;;;;;0.98;0.52;;;;;;;22.45;61.85;100007.22;4451365;31;32890;-88
2023/06/25 02:15:19;;;;;;;0.30;0.30;;;;;;;22.54;61.57;100009.06;4460238;31;33487;-88
2023/06/25 02:17:47;;;;;;;0.73;0.73;;;;;;;22.38;62.14;100016.84;4466473;31;37603;-88
2023/06/25 02:20:15;;;;;;;1.37;0.75;;;;;;;22.40;62.06;100015.69;4451819;31;33500;-88
2023/06/25 02:22:42;;;;;;;1.60;0.57;;;;;;;22.40;62.11;100009.47;4442872;31;31814;-88
2023/06/25 02:25:10;;;;;;;2.83;1.27;;;;;;;22.44;61.99;100017.13;4462966;31;33477;-90
2023/06/25 02:27:38;;;;;;;0.93;0.93;;;;;;;22.53;61.69;100018.12;4448874;31;33735;-90
2023/06/25 02:30:06;;;;;;;0.50;0.50;;;;;;;22.49;61.46;100022.09;4454825;31;34870;-91
2023/06/25 02:32:34;;;;;;;1.48;1.25;;;;;;;22.68;60.82;100014.06;4450490;31;33940;-91
2023/06/25 02:35:02;;;;;;;0.68;0.68;;;;;;;22.51;61.39;100020.13;4448928;31;32476;-91
2023/06/25 02:37:30;;;;;;;1.48;0.50;;;;;;;22.49;61.48;100014.03;4442111;32;33248;-88
2023/06/25 02:39:57;;;;;;;0.47;0.47;;;;;;;22.52;61.40;100016.44;4457157;32;33645;-88
2023/06/25 02:42:25;;;;;;;2.05;1.33;;;;;;;22.68;60.88;100018.59;4485317;32;34107;-88
2023/06/25 02:44:53;;;;;;;1.60;1.42;;;;;;;22.65;61.10;100019.75;4443746;32;33189;-88
2023/06/25 02:47:20;;;;;;;0.70;0.57;;;;;;;22.42;61.98;100018.25;4456124;32;35535;-88
2023/06/25 02:49:49;;;;;;;3.08;1.60;;;;;;;22.36;62.62;100016.09;4457754;32;32921;-89
2023/06/25 02:52:17;;;;;;;0.60;0.60;;;;;;;22.58;61.65;100017.72;4457292;32;32200;-89
2023/06/25 02:54:45;;;;;;;1.08;0.93;;;;;;;22.69;61.30;100021.16;4457857;32;31996;-87
2023/06/25 02:57:12;;;;;;;0.30;0.30;;;;;;;22.67;61.53;100023.13;4458667;32;33833;-86
2023/06/25 02:59:40;;;;;;;3.30;1.92;;;;;;;22.75;61.21;100015.22;4456807;32;33461;-87
2023/06/25 03:02:08;;;;;;;1.12;0.80;;;;;;;22.63;61.50;100016.31;4459105;32;33480;-87
2023/06/25 03:04:37;;;;;;;3.12;1.23;;;;;;;22.55;62.21;100015.31;4446333;32;32797;-87
2023/06/25 03:07:05;;;;;;;0.28;0.28;;;;;;;22.56;62.46;100012.50;4446007;32;32593;-88
2023/06/25 03:09:32;;;;;;;1.12;0.75;;;;;;;22.63;62.30;100018.16;4458751;32;33920;-89
2023/06/25 03:12:01;;;;;;;4.00;1.30;;;;;;;22.72;61.94;100020.03;4445757;32;33874;-89
2023/06/25 03:14:28;;;;;;;1.02;1.00;;;;;;;22.71;62.08;100021.00;4454652;32;32830;-88
2023/06/25 03:17:03;;;;;;;0.70;0.55;;;;;;;22.77;62.24;100016.91;4472317;32;33613;-89
2023/06/25 03:19:31;;;;;;;0.40;0.40;;;;;;;22.89;61.82;100010.44;4445940;32;33401;-89
2023/06/25 03:21:59;;;;;;;1.65;1.33;;;;;;;22.96;61.56;100016.97;4445830;32;32219;-89
2023/06/25 03:24:28;;;;;;;2.62;1.10;;;;;;;22.98;61.83;100020.37;4441421;32;32076;-89
2023/06/25 03:26:56;;;;;;;1.37;1.10;;;;;;;22.81;62.54;100016.50;4458234;32;34454;-89
2023/06/25 03:29:24;;;;;;;1.45;0.77;;;;;;;22.78;62.86;100011.38;4467305;32;33784;-89
2023/06/25 03:31:52;;;;;;;1.15;0.45;;;;;;;22.84;62.96;100018.91;4457307;32;33875;-90
2023/06/25 03:34:20;;;;;;;0.50;0.50;;;;;;;22.81;63.12;100018.34;4445480;32;32397;-88
2023/06/25 03:36:48;;;;;;;0.60;0.60;;;;;;;22.84;63.11;100012.69;4463970;31;33052;-88
2023/06/25 03:39:16;;;;;;;0.93;0.40;;;;;;;22.94;62.96;100019.81;4475791;31;33856;-87
2023/06/25 03:41:43;;;;;;;0.43;0.43;;;;;;;22.99;62.73;100016.69;4479064;31;33516;-88
2023/06/25 03:44:11;;;;;;;0.45;0.37;;;;;;;22.96;62.91;100019.66;4465216;31;32893;-86
2023/06/25 03:46:40;;;;;;;1.42;0.95;;;;;;;23.03;62.62;100023.50;4478303;31;33930;-87
2023/06/25 03:49:07;;;;;;;1.48;1.33;;;;;;;22.98;63.30;100020.37;4465727;31;34799;-87
2023/06/25 03:51:35;;;;;;;1.00;0.93;;;;;;;23.20;62.91;100016.53;4464096;31;33912;-88
2023/06/25 03:54:03;;;;;;;0.57;0.50;;;;;;;23.20;63.09;100016.53;4481685;31;33234;-88
2023/06/25 03:56:31;;;;;;;0.62;0.55;;;;;;;23.03;63.88;100018.09;4467581;31;33628;-89
2023/06/25 03:58:58;;;;;;;0.20;0.20;;;;;;;22.78;64.85;100019.44;4462999;31;33817;-90
2023/06/25 04:01:27;;;;;;;0.40;0.40;;;;;;;22.74;65.25;100026.09;4460362;31;33489;-89
2023/06/25 04:03:55;;;;;;;0.95;0.93;;;;;;;22.60;65.93;100026.50;4453571;31;32943;-91
2023/06/25 04:06:22;;;;;;;0.10;0.05;;;;;;;22.58;66.60;100023.13;4472747;31;34632;-90
2023/06/25 04:08:50;;;;;;;0.80;0.80;;;;;;;22.65;66.35;100025.12;4478872;31;33612;-90
2023/06/25 04:11:19;;;;;;;2.12;0.08;;;;;;;22.60;67.16;100027.37;4465324;31;33445;-86
2023/06/25 04:13:47;;;;;;;0.30;0.30;;;;;;;22.71;66.27;100027.25;4475930;31;32974;-86
2023/06/25 04:16:14;;;;;;;0.40;0.40;;;;;;;22.57;66.73;100027.66;4465501;31;33140;-85
2023/06/25 04:18:42;;;;;;;0.50;0.50;;;;;;;22.61;66.84;100026.38;4465621;31;34681;-86
2023/06/25 04:21:10;;;;;;;1.37;0.32;;;;;;;22.57;67.70;100030.34;4477353;31;33883;-86
2023/06/25 04:23:38;;;;;;;0.82;0.82;;;;;;;22.67;67.33;100027.66;4464527;31;33415;-87
2023/06/25 04:26:06;;;;;;;0.03;0.03;;;;;;;22.69;67.36;100023.84;4466547;31;33719;-88
2023/06/25 04:28:33;;;;;;;0.73;0.47;;;;;;;22.69;67.39;100023.84;4478215;31;33423;-88
2023/06/25 04:31:02;;;;;;;0.60;0.60;;;;;;;22.79;66.98;100018.50;4471984;31;32722;-88
2023/06/25 04:33:30;;;;;;;0.50;0.50;;;;;;;22.72;67.46;100018.16;4470090;31;34512;-88
2023/06/25 04:35:58;;;;;;;2.20;1.27;;;;;;;22.75;67.26;100025.97;4464956;31;33718;-88
2023/06/25 04:38:26;;;;;;;0.77;0.77;;;;;;;22.91;66.36;100020.06;4459998;31;32650;-87
2023/06/25 04:40:54;;;;;;;0.73;0.73;;;;;;;22.78;66.96;100024.00;4478277;31;33905;-88
2023/06/25 04:43:21;;;;;;;0.45;0.45;;;;;;;22.69;67.87;100018.47;4454155;31;32781;-88
2023/06/25 04:45:49;;;;;;;0.80;0.80;;;;;;;22.69;67.73;100015.78;4467573;31;32820;-87
2023/06/25 04:48:17;;;;;;;0.85;0.85;;;;;;;22.78;67.50;100019.44;4467802;31;33916;-88
2023/06/25 04:50:45;;;;;;;0.68;0.68;;;;;;;22.88;66.61;100014.97;4464539;31;33424;-87
2023/06/25 04:53:13;;;;;;;0.68;0.68;;;;;;;22.69;67.46;100015.78;4473107;31;34558;-88
2023/06/25 04:55:44;;;;;;;0.77;0.77;;;;;;;22.80;67.31;100014.78;4465930;31;33905;-88
2023/06/25 04:58:11;;;;;;;1.65;1.30;;;;;;;22.90;67.35;100014.84;4471501;31;33743;-87
2023/06/25 05:00:39;;;;;;;1.23;1.23;;;;;;;22.94;67.22;100018.94;4467379;31;34477;-86
2023/06/25 05:03:07;;;;;;;1.17;1.15;;;;;;;22.98;67.24;100020.37;4474053;31;32668;-89
2023/06/25 05:05:34;;;;;;;1.17;1.15;;;;;;;22.98;66.97;100017.69;4461491;31;33238;-88
2023/06/25 05:08:04;;;;;;;2.45;0.75;;;;;;;22.84;67.28;100020.75;4461273;31;34377;-89
2023/06/25 05:10:32;;;;;;;1.23;0.80;;;;;;;22.92;66.88;100020.91;4460764;31;33906;-85
2023/06/25 05:13:00;;;;;;;1.20;1.05;;;;;;;22.86;67.03;100016.06;4458852;31;31577;-85
2023/06/25 05:15:27;;;;;;;1.12;1.00;;;;;;;22.99;66.53;100024.75;4459702;31;32138;-85
2023/06/25 05:17:55;;;;;;;3.40;0.90;;;;;;;23.11;66.28;100020.06;4440775;31;34700;-85
2023/06/25 05:20:23;;;;;;;0.82;0.82;;;;;;;23.17;66.51;100025.75;4475509;31;33572;-85
2023/06/25 05:22:51;;;;;;;2.62;1.87;;;;;;;23.21;66.54;100020.91;4444930;31;32755;-85
2023/06/25 05:25:19;;;;;;;1.55;1.27;;;;;;;23.20;66.02;100022.75;4459807;31;34278;-85
2023/06/25 05:27:46;;;;;;;0.80;0.73;;;;;;;23.25;65.95;100023.19;4482727;31;181877;-86
2023/06/25 05:30:14;;;;;;;0.93;0.93;;;;;;;23.34;65.66;100026.87;4472341;31;33877;-86
2023/06/25 05:32:42;;;;;;;0.75;0.75;;;;;;;23.32;65.85;100033.41;4447238;31;33302;-86
2023/06/25 05:35:10;;;;;;;2.08;1.00;;;;;;;23.38;65.90;100035.53;4460762;31;32389;-85
2023/06/25 05:37:37;;;;;;;1.55;1.12;;;;;;;23.41;65.39;100036.09;4460197;31;34365;-86
2023/06/25 05:40:06;;;;;;;0.77;0.77;;;;;;;23.30;65.25;100035.38;4469368;31;33855;-87
2023/06/25 05:42:33;;;;;;;4.55;0.90;;;;;;;23.21;65.93;100040.63;4466127;31;33061;-87
2023/06/25 05:45:01;;;;;;;0.68;0.68;;;;;;;23.33;65.40;100044.03;4444588;31;32880;-88
2023/06/25 05:47:29;;;;;;;1.37;1.27;;;;;;;23.57;64.71;100046.28;4462501;31;33953;-89
2023/06/25 05:50:04;;;;;;;0.77;0.73;;;;;;;23.58;65.03;100050.66;4448068;31;33302;-88
2023/06/25 05:52:31;;;;;;;0.50;0.50;;;;;;;23.54;64.97;100048.41;4466678;31;34122;-89
2023/06/25 05:54:59;;;;;;;0.32;0.32;;;;;;;23.62;64.83;100052.09;4466960;31;33431;-88
2023/06/25 05:57:26;;;;;;;2.33;0.95;;;;;;;23.73;64.39;100043.84;4451512;31;33735;-87
2023/06/25 05:59:54;;;;;;;1.42;0.95;;;;;;;23.85;64.03;100046.41;4448637;31;32598;-87
2023/06/25 06:02:22;;;;;;;0.80;0.80;;;;;;;24.11;61.33;100047.44;4461339;31;32648;-87
2023/06/25 06:04:50;;;;;;;0.50;0.50;;;;;;;23.84;61.92;100042.84;4450584;32;32720;-88
2023/06/25 06:07:18;;;;;;;1.02;0.80;;;;;;;23.85;62.53;100038.31;4449921;31;33055;-88
2023/06/25 06:09:46;;;;;;;0.68;0.68;;;;;;;23.79;62.86;100052.38;4441287;31;32381;-87
2023/06/25 06:12:14;;;;;;;0.15;0.15;;;;;;;23.88;63.07;100046.97;4449738;31;33438;-88
2023/06/25 06:14:41;;;;;;;1.40;1.23;;;;;;;24.07;61.97;100051.44;4453483;31;32832;-88
2023/06/25 06:17:09;;;;;;;1.05;1.05;;;;;;;23.94;61.76;100050.91;4450622;31;33317;-88
2023/06/25 06:19:37;;;;;;;0.30;0.30;;;;;;;24.00;61.08;100044.91;4452539;31;34152;-88
2023/06/25 06:22:05;;;;;;;0.50;0.50;;;;;;;24.07;60.63;100048.75;4462684;31;33085;-87
2023/06/25 06:24:33;;;;;;;0.57;0.57;;;;;;;23.84;62.25;100047.41;4451444;31;34619;-87
2023/06/25 06:27:02;;;;;;;0.85;0.70;;;;;;;24.25;59.36;100048.78;4462254;31;34916;-87
2023/06/25 06:29:29;;;;;;;3.50;1.00;;;;;;;24.07;60.38;100050.56;4461430;32;33424;-87
2023/06/25 06:31:57;;;;;;;0.25;0.25;;;;;;;23.88;60.90;100046.09;4437842;31;33231;-87
2023/06/25 06:34:25;;;;;;;0.65;0.52;;;;;;;23.86;60.83;100043.53;4464060;31;33879;-86
2023/06/25 06:36:55;;;;;;;0.20;0.20;;;;;;;23.85;61.76;100054.47;4453663;31;35033;-86
2023/06/25 06:39:22;;;;;;;0.70;0.65;;;;;;;23.99;61.02;100054.03;4454769;31;34152;-86
2023/06/25 06:41:50;;;;;;;0.40;0.40;;;;;;;23.85;62.37;100062.56;4468047;31;33083;-86
2023/06/25 06:44:18;;;;;;;0.88;0.17;;;;;;;23.91;62.36;100056.59;4468343;31;33739;-87
2023/06/25 06:46:46;;;;;;;0.52;0.52;;;;;;;23.75;62.41;100058.06;4469003;31;32080;-87
2023/06/25 06:49:16;;;;;;;0.82;0.82;;;;;;;23.97;61.07;100050.59;4451617;31;33835;-86
2023/06/25 06:51:44;;;;;;;1.85;1.27;;;;;;;24.15;60.47;100059.62;4451850;31;32539;-87
2023/06/25 06:54:12;;;;;;;0.37;0.37;;;;;;;24.02;60.91;100051.88;4452969;31;33533;-87
2023/06/25 06:56:40;;;;;;;0.40;0.40;;;;;;;24.40;57.61;100051.88;4447182;31;34324;-87
2023/06/25 06:59:07;;;;;;;0.43;0.43;;;;;;;24.44;56.77;100053.28;4453480;31;33158;-86
2023/06/25 07:01:35;;;;;;;0.43;0.43;;;;;;;24.26;58.39;100051.38;4452627;31;32454;-86
2023/06/25 07:04:19;;;;;;;0.40;0.40;;;;;;;24.51;57.73;100055.25;4444150;31;32638;-87
2023/06/25 07:06:52;;;;;;;0.35;0.35;;;;;;;24.34;58.52;100052.44;4455856;31;34184;-87
2023/06/25 07:09:22;;;;;;;0.10;0.10;;;;;;;24.60;56.78;100048.09;4455319;31;33821;-87
2023/06/25 07:11:52;;;;;;;0.32;0.20;;;;;;;24.52;56.24;100046.12;4457245;31;33441;-87
2023/06/25 07:14:20;;;;;;;0.35;0.35;;;;;;;24.38;58.09;100049.34;4442749;31;32907;-87
2023/06/25 07:16:48;;;;;;;1.60;0.47;;;;;;;24.44;57.13;100058.69;4453376;31;34718;-87
2023/06/25 07:19:15;;;;;;;0.68;0.55;;;;;;;24.22;58.91;100059.91;4441805;31;34147;-88
2023/06/25 07:21:54;;;;;;;0.55;0.55;;;;;;;24.16;59.84;100055.94;4456202;31;32634;-87
2023/06/25 07:24:21;;;;;;;0.50;0.50;;;;;;;24.07;59.80;100047.88;4467143;31;34448;-86
2023/06/25 07:26:49;;;;;;;1.08;0.45;;;;;;;24.11;60.10;100050.13;4453609;32;34213;-86
2023/06/25 07:29:17;;;;;;;2.50;0.68;;;;;;;24.13;59.44;100060.78;4442543;31;33072;-86
2023/06/25 07:31:45;;;;;;;1.92;1.35;;;;;;;24.19;58.51;100044.84;4453305;32;31403;-86
2023/06/25 07:34:13;;;;;;;0.57;0.47;;;;;;;24.11;58.54;100049.28;4466949;31;34478;-86
2023/06/25 07:36:41;;;;;;;0.85;0.43;;;;;;;24.16;58.93;100049.69;4448922;31;33942;-86
2023/06/25 07:39:09;;;;;;;6.60;0.88;;;;;;;24.07;59.17;100054.16;4454524;31;34235;-86
2023/06/25 07:41:37;;;;;;;1.50;1.42;;;;;;;24.28;59.21;100049.34;4465997;31;32484;-86
2023/06/25 07:44:07;;;;;;;0.90;0.90;;;;;;;24.19;60.54;100047.53;4454406;32;33254;-87
2023/06/25 07:46:55;;;;;;;2.25;1.00;;;;;;;24.22;61.20;100049.97;4458553;31;34113;-86
2023/06/25 07:49:23;;;;;;;0.93;0.80;;;;;;;23.96;60.90;100054.31;4478935;31;34272;-87
2023/06/25 07:51:50;;;;;;;1.70;1.60;;;;;;;24.25;60.40;100060.44;4457669;31;32681;-87
2023/06/25 07:54:18;;;;;;;0.68;0.68;;;;;;;24.22;60.83;100054.50;4440564;31;33392;-87
2023/06/25 07:56:46;;;;;;;1.87;1.75;;;;;;;23.82;62.55;100047.53;4451126;31;33248;-86
2023/06/25 07:59:15;;;;;;;1.02;0.88;;;;;;;24.17;62.01;100052.25;4440620;31;33823;-86
2023/06/25 08:01:44;;;;;;;0.32;0.32;;;;;;;24.41;60.98;100040.09;4455379;31;32947;-86
2023/06/25 08:04:16;;;;;;;0.60;0.60;;;;;;;24.50;60.99;100042.75;4453303;31;33244;-87
2023/06/25 08:06:46;;;;;;;1.27;1.17;;;;;;;24.63;60.27;100039.69;4444191;31;34491;-86
2023/06/25 08:09:14;;;;;;;0.80;0.32;;;;;;;24.49;56.88;100045.59;4465454;31;33425;-86
2023/06/25 08:11:42;;;;;;;0.47;0.47;;;;;;;24.43;56.48;100043.50;4455193;32;32624;-86
2023/06/25 08:14:10;;;;;;;0.43;0.32;;;;;;;24.72;55.41;100040.63;4454635;31;33871;-86
2023/06/25 08:16:38;;;;;;;1.02;0.90;;;;;;;24.80;55.75;100042.56;4445668;31;34166;-86
2023/06/25 08:19:06;;;;;;;0.80;0.80;;;;;;;24.91;55.71;100045.03;4455654;31;34216;-87
2023/06/25 08:21:33;;;;;;;0.55;0.55;;;;;;;24.88;55.02;100040.81;4465504;31;32740;-86
2023/06/25 08:24:01;;;;;;;0.43;0.43;;;;;;;24.86;55.02;100042.78;4449955;31;32980;-86
2023/06/25 08:26:29;;;;;;;0.30;0.30;;;;;;;25.42;53.71;100038.97;4466234;32;34092;-86
2023/06/25 08:28:57;;;;;;;0.32;0.30;;;;;;;25.48;53.51;100034.78;4458122;32;32883;-86
2023/06/25 08:31:26;;;;;;;0.65;0.65;;;;;;;25.39;54.34;100033.00;4441976;31;30708;-87
2023/06/25 08:33:54;;;;;;;0.47;0.47;;;;;;;25.44;54.21;100030.69;4459347;31;31406;-86
2023/06/25 08:36:25;;;;;;;0.35;0.35;;;;;;;25.58;52.19;100038.22;4451841;32;33300;-87
2023/06/25 08:39:30;;;;;;;0.30;0.20;;;;;;;25.51;52.75;100031.78;4446199;31;34568;-86
2023/06/25 08:42:14;;;;;;;0.35;0.20;;;;;;;25.79;52.56;100029.81;4444407;31;33714;-86
2023/06/25 08:45:06;;;;;;;0.20;0.20;;;;;;;26.32;50.03;100025.16;4460957;31;33536;-86
2023/06/25 08:47:42;;;;;;;0.70;0.45;;;;;;;26.30;51.25;100019.91;4443503;31;33560;-86
2023/06/25 08:50:13;;;;;;;0.50;0.13;;;;;;;26.42;48.40;100023.19;4447066;31;33760;-86
2023/06/25 08:52:51;;;;;;;3.03;0.47;;;;;;;26.29;47.65;100019.06;4442478;31;32689;-86
2023/06/25 08:55:29;;;;;;;0.20;0.20;;;;;;;25.97;48.72;100022.47;4464706;31;33612;-86
2023/06/25 08:58:37;;;;;;;0.00;0.00;;;;;;;25.73;49.80;100025.84;4460375;31;33727;-86
2023/06/25 09:01:19;;;;;;;0.10;0.10;;;;;;;25.35;51.01;100026.22;4452310;32;33552;-86
2023/06/25 09:07:51;;;;;;;0.10;0.10;;;;;;;25.70;52.01;100015.34;4465147;32;34801;-86
2023/06/25 09:10:56;;;;;;;0.40;0.40;;;;;;;25.65;50.27;100017.69;4381867;32;35134;-86
2023/06/25 09:14:43;;;;;;;0.62;0.35;;;;;;;26.14;50.18;100007.16;4375300;32;35083;-86
2023/06/25 09:22:08;;;;;;;0.25;0.25;;;;;;;26.11;48.41;100009.31;4321321;32;34461;-86
2023/06/25 09:29:42;;;;;;;0.20;0.20;;;;;;;26.45;47.71;99998.53;4344772;32;35694;-85
2023/06/25 09:33:08;;;;;;;;;;;;;;;;;;;;;
2023/06/25 09:37:14;;;;;;;0.82;0.82;;;;;;;26.28;49.81;99998.41;4307675;33;34004;-86
2023/06/25 09:41:31;;;;;;;0.15;0.15;;;;;;;25.96;50.51;99998.25;4306795;33;34052;-86
2023/06/25 09:48:56;;;;;;;0.22;0.22;;;;;;;26.17;48.36;99996.00;4360850;32;33277;-86
2023/06/25 09:51:52;;;;;;;0.25;0.25;;;;;;;26.57;46.16;99982.81;4377684;32;33059;-86
2023/06/25 09:54:24;;;;;;;0.10;0.10;;;;;;;26.30;47.85;99988.28;4409487;32;33381;-86
2023/06/25 09:56:53;;;;;;;0.82;0.50;;;;;;;26.91;45.74;99982.69;4434618;32;33846;-86
2023/06/25 09:59:21;;;;;;;0.43;0.32;;;;;;;26.81;47.28;99980.97;4409693;32;34213;-86
2023/06/25 10:01:51;;;;;;;1.08;0.98;;;;;;;27.24;42.72;99975.44;4420549;32;32893;-86
2023/06/25 10:04:19;;;;;;;0.03;0.03;;;;;;;26.97;44.26;99973.91;4405620;32;35169;-86
2023/06/25 10:06:47;;;;;;;0.15;0.15;;;;;;;27.00;43.79;99965.41;4423754;32;33901;-86
2023/06/25 10:09:15;;;;;;;0.00;0.00;;;;;;;26.69;43.91;99967.94;4397167;32;32613;-86
2023/06/25 10:11:54;;;;;;;0.20;0.20;;;;;;;27.17;43.25;99964.44;4410699;32;31151;-86
2023/06/25 10:14:22;;;;;;;0.55;0.55;;;;;;;26.86;43.93;99974.22;4466798;31;31867;-86
2023/06/25 10:16:54;;;;;;;0.15;0.15;;;;;;;26.57;44.12;99955.72;4455567;31;34470;-86
2023/06/25 10:19:23;;;;;;;0.98;0.88;;;;;;;27.02;43.48;99961.53;4437297;32;31949;-86
2023/06/25 10:22:00;;;;;;;0.55;0.43;;;;;;;27.15;42.69;99958.34;4462546;31;33555;-86
2023/06/25 10:24:41;;;;;;;0.30;0.20;;;;;;;26.96;43.64;99962.19;4464113;31;32019;-86
2023/06/25 10:27:24;;;;;;;0.08;0.08;;;;;;;26.98;43.94;99962.03;4480012;31;33576;-86
2023/06/25 10:29:52;;;;;;;0.10;0.03;;;;;;;27.08;44.62;99957.34;4451888;31;32552;-86
2023/06/25 10:32:22;;;;;;;1.85;0.52;;;;;;;27.41;42.89;99960.88;4455138;31;32959;-86
2023/06/25 10:35:03;;;;;;;0.28;0.28;;;;;;;27.59;43.48;99957.97;4466616;31;33290;-86
2023/06/25 10:37:32;;;;;;;0.68;0.47;;;;;;;27.73;45.04;99960.00;4442393;31;32850;-86
2023/06/25 10:40:08;;;;;;;0.20;0.20;;;;;;;27.64;41.61;99958.28;4450517;31;33487;-86
2023/06/25 10:42:36;;;;;;;0.10;0.10;;;;;;;27.98;40.95;99951.75;4456680;31;33367;-86
2023/06/25 10:45:08;;;;;;;0.20;0.20;;;;;;;27.55;42.06;99959.31;4463149;31;34379;-86
2023/06/25 10:47:36;;;;;;;0.10;0.10;;;;;;;28.30;42.58;99957.03;4458072;31;33384;-86
2023/06/25 10:50:04;;;;;;;1.08;0.52;;;;;;;28.42;42.16;99956.66;4463042;32;32094;-86
2023/06/25 10:52:31;;;;;;;0.73;0.10;;;;;;;28.03;40.99;99958.34;4451732;31;34398;-86
2023/06/25 10:55:01;;;;;;;0.03;0.03;;;;;;;28.43;40.44;99942.91;4466196;31;32862;-87
2023/06/25 10:57:31;;;;;;;1.67;0.93;;;;;;;28.27;39.58;99949.25;4441239;32;33557;-86
2023/06/25 10:59:59;;;;;;;0.73;0.57;;;;;;;28.47;42.52;99938.81;4444313;31;32752;-87
2023/06/25 11:02:27;;;;;;;0.30;0.30;;;;;;;27.92;41.00;99952.47;4458830;31;33734;-86
2023/06/25 11:04:56;;;;;;;0.20;0.17;;;;;;;27.92;42.83;99955.19;4459222;31;33908;-86
2023/06/25 11:07:27;;;;;;;1.02;0.75;;;;;;;28.56;41.35;99940.44;4456857;31;32794;-86
2023/06/25 11:10:00;;;;;;;0.10;0.10;;;;;;;28.40;41.46;99947.87;4456756;31;32038;-86
2023/06/25 11:12:29;;;;;;;0.25;0.25;;;;;;;28.76;39.21;99938.09;4465782;31;34357;-86
2023/06/25 11:14:57;;;;;;;0.65;0.65;;;;;;;28.58;38.89;99934.81;4454911;31;33944;-86
2023/06/25 11:17:26;;;;;;;0.40;0.40;;;;;;;28.43;38.53;99942.91;4455500;32;33505;-86
2023/06/25 11:19:56;;;;;;;0.98;0.32;;;;;;;28.46;38.24;99930.84;4455927;31;33123;-86
2023/06/25 11:22:26;;;;;;;0.57;0.57;;;;;;;28.58;38.24;99923.97;4469676;31;33880;-86
2023/06/25 11:24:53;;;;;;;0.17;0.17;;;;;;;28.49;38.35;99931.34;4443562;32;33566;-86
2023/06/25 11:27:26;;;;;;;0.62;0.35;;;;;;;28.35;38.36;99928.53;4473206;31;33646;-86
2023/06/25 11:29:57;;;;;;;0.68;0.68;;;;;;;28.56;37.89;99926.03;4467475;31;32350;-86
2023/06/25 11:32:27;;;;;;;0.20;0.20;;;;;;;28.48;39.06;99909.78;4456268;31;33001;-86
2023/06/25 11:34:59;;;;;;;0.20;0.20;;;;;;;28.61;37.53;99918.19;4452202;31;34114;-87
2023/06/25 11:37:27;;;;;;;0.00;0.00;;;;;;;28.80;37.97;99912.25;4457117;31;33275;-86
2023/06/25 11:39:56;;;;;;;0.65;0.65;;;;;;;28.80;37.13;99912.25;4481218;31;31490;-86
2023/06/25 11:42:24;;;;;;;0.30;0.30;;;;;;;29.32;37.36;99906.03;4457033;32;32858;-87
2023/06/25 11:45:03;;;;;;;0.20;0.20;;;;;;;29.39;36.36;99908.00;4459536;31;32903;-86
2023/06/25 11:47:33;;;;;;;0.10;0.10;;;;;;;29.51;36.02;99904.63;4457778;31;34785;-86
2023/06/25 11:50:04;;;;;;;1.35;0.55;;;;;;;29.66;34.41;99899.22;4454948;31;33000;-86
2023/06/25 11:52:33;;;;;;;0.20;0.20;;;;;;;29.52;34.48;99892.72;4466825;31;33183;-86
2023/06/25 11:55:01;;;;;;;0.20;0.20;;;;;;;29.22;36.36;99899.19;4463226;31;34421;-86
2023/06/25 11:57:29;;;;;;;0.62;0.20;;;;;;;28.71;36.09;99893.47;4456890;31;34013;-86
2023/06/25 11:59:56;;;;;;;0.32;0.32;;;;;;;29.06;35.77;99889.31;4443777;31;32057;-86
2023/06/25 12:02:24;;;;;;;0.25;0.25;;;;;;;28.98;36.49;99892.09;4447074;31;33197;-87
2023/06/25 12:05:08;;;;;;;0.00;0.00;;;;;;;28.90;38.01;99889.41;4453536;31;33052;-87